TimePDT,TemperatureF,Dew PointF,Humidity,Sea Level PressureIn,VisibilityMPH,Wind Direction,Wind SpeedMPH,Gust SpeedMPH,PrecipitationIn,Events,Conditions,WindDirDegrees,DateUTC
12:53 AM,35.1,19.9,54,30.14,10.0,Calm,Calm,-,N/A,,Clear,0,2013-10-07 07:53:00
1:53 AM,32.0,19.9,61,30.13,10.0,Calm,Calm,-,N/A,,Clear,0,2013-10-07 08:53:00
2:53 AM,30.0,19.9,66,30.12,10.0,South,3.5,-,N/A,,Clear,190,2013-10-07 09:53:00
3:53 AM,30.9,19.0,61,30.10,10.0,Calm,Calm,-,N/A,,Clear,0,2013-10-07 10:53:00
4:53 AM,30.0,19.0,64,30.10,10.0,Calm,Calm,-,N/A,,Clear,0,2013-10-07 11:53:00
5:53 AM,30.0,19.0,64,30.11,10.0,South,3.5,-,N/A,,Clear,190,2013-10-07 12:53:00
6:53 AM,28.9,18.0,64,30.13,10.0,South,4.6,-,N/A,,Clear,190,2013-10-07 13:53:00
7:53 AM,28.9,18.0,64,30.16,10.0,SSW,4.6,-,N/A,,Clear,200,2013-10-07 14:53:00
8:53 AM,43.0,18.0,37,30.12,10.0,South,4.6,-,N/A,,Clear,190,2013-10-07 15:53:00
9:53 AM,55.0,15.1,21,30.08,10.0,Calm,Calm,-,N/A,,Clear,0,2013-10-07 16:53:00
10:53 AM,63.0,-0.0,8,30.05,10.0,SSW,6.9,-,N/A,,Clear,200,2013-10-07 17:53:00
11:16 AM,62.6,-0.4,8,30.15,10.0,Variable,5.8,-,N/A,,Partly Cloudy,0,2013-10-07 18:16:00
11:53 AM,66.0,3.0,8,30.03,10.0,SSW,10.4,24.2,N/A,,Clear,200,2013-10-07 18:53:00
12:53 PM,66.9,5.0,9,30.01,10.0,Variable,5.8,-,N/A,,Clear,0,2013-10-07 19:53:00
1:53 PM,64.9,8.1,11,30.00,10.0,Variable,3.5,18.4,N/A,,Clear,0,2013-10-07 20:53:00
2:53 PM,68.0,12.0,11,29.99,10.0,South,9.2,19.6,N/A,,Clear,190,2013-10-07 21:53:00
3:53 PM,66.9,16.0,14,29.99,10.0,SSW,9.2,16.1,N/A,,Clear,210,2013-10-07 22:53:00
4:53 PM,64.9,16.0,15,29.98,10.0,Variable,6.9,-,N/A,,Clear,0,2013-10-07 23:53:00
5:53 PM,61.0,15.1,17,29.99,10.0,SSW,12.7,17.3,N/A,,Clear,200,2013-10-08 00:53:00
6:53 PM,57.0,16.0,20,30.01,10.0,South,8.1,-,N/A,,Clear,190,2013-10-08 01:53:00
7:53 PM,55.9,17.1,22,30.00,10.0,SSW,11.5,-,N/A,,Clear,200,2013-10-08 02:53:00
8:53 PM,55.0,16.0,22,29.96,10.0,South,10.4,-,N/A,,Clear,180,2013-10-08 03:53:00
9:53 PM,55.9,12.0,18,29.94,10.0,Calm,Calm,-,N/A,,Clear,0,2013-10-08 04:53:00
10:53 PM,52.0,15.1,23,29.92,10.0,Calm,Calm,-,N/A,,Clear,0,2013-10-08 05:53:00
11:53 PM,53.1,15.1,22,29.90,10.0,South,5.8,-,N/A,,Clear,180,2013-10-08 06:53:00